sensor_id;sensor_type;location;lat;lon;timestamp;pressure;altitude;pressure_sealevel;temperature;humidity
75425;BME280;64007;50.632;13.700;2023-05-29T00:00:21;98208.75;;;11.86;61.67
75425;BME280;64007;50.632;13.700;2023-05-29T00:03:07;98217.72;;;11.85;60.67
75425;BME280;64007;50.632;13.700;2023-05-29T00:05:35;98209.84;;;11.84;59.97
75425;BME280;64007;50.632;13.700;2023-05-29T00:08:01;98210.34;;;11.78;60.86
75425;BME280;64007;50.632;13.700;2023-05-29T00:10:27;98219.66;;;11.83;61.72
75425;BME280;64007;50.632;13.700;2023-05-29T00:12:52;98216.75;;;11.75;61.03
75425;BME280;64007;50.632;13.700;2023-05-29T00:15:18;98217.00;;;11.72;62.61
75425;BME280;64007;50.632;13.700;2023-05-29T00:17:44;98217.50;;;11.66;61.61
75425;BME280;64007;50.632;13.700;2023-05-29T00:20:10;98213.50;;;11.60;62.66
75425;BME280;64007;50.632;13.700;2023-05-29T00:22:37;98214.84;;;11.55;63.19
75425;BME280;64007;50.632;13.700;2023-05-29T00:25:07;98217.91;;;11.50;62.65
75425;BME280;64007;50.632;13.700;2023-05-29T00:27:34;98223.59;;;11.46;63.38
75425;BME280;64007;50.632;13.700;2023-05-29T00:30:00;98222.38;;;11.50;60.74
75425;BME280;64007;50.632;13.700;2023-05-29T00:32:26;98211.97;;;11.47;59.38
75425;BME280;64007;50.632;13.700;2023-05-29T00:34:55;98225.75;;;11.52;58.83
75425;BME280;64007;50.632;13.700;2023-05-29T00:37:21;98214.25;;;11.51;58.81
75425;BME280;64007;50.632;13.700;2023-05-29T00:39:48;98213.66;;;11.48;59.82
75425;BME280;64007;50.632;13.700;2023-05-29T00:42:14;98215.00;;;11.42;59.34
75425;BME280;64007;50.632;13.700;2023-05-29T00:44:40;98221.78;;;11.46;59.45
75425;BME280;64007;50.632;13.700;2023-05-29T00:47:06;98214.16;;;11.42;59.15
75425;BME280;64007;50.632;13.700;2023-05-29T00:49:33;98216.13;;;11.40;58.79
75425;BME280;64007;50.632;13.700;2023-05-29T00:52:01;98206.91;;;11.44;58.45
75425;BME280;64007;50.632;13.700;2023-05-29T00:54:29;98210.75;;;11.51;57.88
75425;BME280;64007;50.632;13.700;2023-05-29T00:56:59;98204.13;;;11.45;57.55
75425;BME280;64007;50.632;13.700;2023-05-29T00:59:30;98217.81;;;11.41;56.92
75425;BME280;64007;50.632;13.700;2023-05-29T01:01:57;98203.31;;;11.34;56.61
75425;BME280;64007;50.632;13.700;2023-05-29T01:04:25;98211.28;;;11.34;56.71
75425;BME280;64007;50.632;13.700;2023-05-29T01:06:51;98204.53;;;11.29;55.25
75425;BME280;64007;50.632;13.700;2023-05-29T01:09:17;98204.78;;;11.26;55.96
75425;BME280;64007;50.632;13.700;2023-05-29T01:11:58;98205.03;;;11.23;56.73
75425;BME280;64007;50.632;13.700;2023-05-29T01:14:33;98208.66;;;11.22;57.89
75425;BME280;64007;50.632;13.700;2023-05-29T01:17:19;98204.03;;;11.13;59.19
75425;BME280;64007;50.632;13.700;2023-05-29T01:22:54;98202.34;;;11.12;59.58
75425;BME280;64007;50.632;13.700;2023-05-29T01:28:16;98189.31;;;10.98;59.04
75425;BME280;64007;50.632;13.700;2023-05-29T01:30:45;98199.84;;;10.99;60.04
75425;BME280;64007;50.632;13.700;2023-05-29T01:33:12;98199.47;;;11.04;58.73
75425;BME280;64007;50.632;13.700;2023-05-29T01:35:38;98195.72;;;10.95;59.63
75425;BME280;64007;50.632;13.700;2023-05-29T01:38:03;98201.28;;;10.92;60.68
75425;BME280;64007;50.632;13.700;2023-05-29T01:40:29;98195.38;;;10.89;62.28
75425;BME280;64007;50.632;13.700;2023-05-29T01:42:55;98192.72;;;10.89;60.76
75425;BME280;64007;50.632;13.700;2023-05-29T01:45:21;98198.50;;;10.94;58.64
75425;BME280;64007;50.632;13.700;2023-05-29T01:47:48;98189.22;;;10.88;59.35
75425;BME280;64007;50.632;13.700;2023-05-29T01:50:17;98185.22;;;10.83;61.17
75425;BME280;64007;50.632;13.700;2023-05-29T01:52:44;98189.31;;;10.76;61.42
75425;BME280;64007;50.632;13.700;2023-05-29T01:55:10;98191.00;;;10.77;61.74
75425;BME280;64007;50.632;13.700;2023-05-29T01:57:36;98190.75;;;10.68;63.79
75425;BME280;64007;50.632;13.700;2023-05-29T02:00:03;98181.34;;;10.64;63.86
75425;BME280;64007;50.632;13.700;2023-05-29T02:02:38;98186.41;;;10.56;63.34
75425;BME280;64007;50.632;13.700;2023-05-29T02:05:05;98182.78;;;10.57;62.83
75425;BME280;64007;50.632;13.700;2023-05-29T02:07:32;98187.38;;;10.55;62.32
75425;BME280;64007;50.632;13.700;2023-05-29T02:09:57;98190.16;;;10.54;64.33
75425;BME280;64007;50.632;13.700;2023-05-29T02:12:23;98185.69;;;10.54;65.23
75425;BME280;64007;50.632;13.700;2023-05-29T02:14:49;98193.19;;;10.49;66.29
75425;BME280;64007;50.632;13.700;2023-05-29T02:17:14;98179.28;;;10.46;66.16
75425;BME280;64007;50.632;13.700;2023-05-29T02:19:40;98178.69;;;10.42;66.95
75425;BME280;64007;50.632;13.700;2023-05-29T02:22:07;98179.00;;;10.38;65.20
75425;BME280;64007;50.632;13.700;2023-05-29T02:24:32;98179.00;;;10.38;65.25
75425;BME280;64007;50.632;13.700;2023-05-29T02:26:58;98175.38;;;10.39;64.34
75425;BME280;64007;50.632;13.700;2023-05-29T02:29:24;98174.41;;;10.40;65.42
75425;BME280;64007;50.632;13.700;2023-05-29T02:31:50;98172.84;;;10.37;64.50
75425;BME280;64007;50.632;13.700;2023-05-29T02:34:16;98172.84;;;10.37;65.73
75425;BME280;64007;50.632;13.700;2023-05-29T02:36:41;98174.53;;;10.38;67.15
75425;BME280;64007;50.632;13.700;2023-05-29T02:39:07;98178.16;;;10.37;67.65
75425;BME280;64007;50.632;13.700;2023-05-29T02:41:33;98176.47;;;10.36;66.08
75425;BME280;64007;50.632;13.700;2023-05-29T02:43:58;98174.03;;;10.33;65.97
75425;BME280;64007;50.632;13.700;2023-05-29T02:46:25;98177.31;;;10.36;66.88
75425;BME280;64007;50.632;13.700;2023-05-29T02:48:50;98175.00;;;10.32;67.31
75425;BME280;64007;50.632;13.700;2023-05-29T02:51:16;98176.94;;;10.30;67.37
75425;BME280;64007;50.632;13.700;2023-05-29T02:53:42;98180.56;;;10.29;67.48
75425;BME280;64007;50.632;13.700;2023-05-29T02:56:08;98184.44;;;10.25;68.44
75425;BME280;64007;50.632;13.700;2023-05-29T02:58:34;98193.38;;;10.24;70.82
75425;BME280;64007;50.632;13.700;2023-05-29T03:01:01;98191.03;;;10.19;70.78
75425;BME280;64007;50.632;13.700;2023-05-29T03:03:27;98186.78;;;10.17;70.07
75425;BME280;64007;50.632;13.700;2023-05-29T03:05:53;98184.72;;;10.09;69.39
75425;BME280;64007;50.632;13.700;2023-05-29T03:08:19;98191.50;;;10.13;71.17
75425;BME280;64007;50.632;13.700;2023-05-29T03:10:44;98183.88;;;10.09;71.07
75425;BME280;64007;50.632;13.700;2023-05-29T03:13:10;98187.50;;;10.08;70.93
75425;BME280;64007;50.632;13.700;2023-05-29T03:15:36;98177.22;;;10.03;70.92
75425;BME280;64007;50.632;13.700;2023-05-29T03:18:01;98189.88;;;9.99;72.93
75425;BME280;64007;50.632;13.700;2023-05-29T03:20:27;98187.00;;;10.02;72.32
75425;BME280;64007;50.632;13.700;2023-05-29T03:22:53;98186.47;;;9.97;73.19
75425;BME280;64007;50.632;13.700;2023-05-29T03:25:21;98187.69;;;9.93;76.19
75425;BME280;64007;50.632;13.700;2023-05-29T03:27:47;98190.94;;;9.97;76.04
75425;BME280;64007;50.632;13.700;2023-05-29T03:30:13;98184.78;;;9.96;75.69
75425;BME280;64007;50.632;13.700;2023-05-29T03:32:38;98200.00;;;9.94;77.27
75425;BME280;64007;50.632;13.700;2023-05-29T03:35:04;98194.19;;;9.89;77.68
75425;BME280;64007;50.632;13.700;2023-05-29T03:37:30;98201.44;;;9.87;77.63
75425;BME280;64007;50.632;13.700;2023-05-29T03:39:56;98209.03;;;9.92;79.78
75425;BME280;64007;50.632;13.700;2023-05-29T03:42:21;98214.00;;;9.96;76.70
75425;BME280;64007;50.632;13.700;2023-05-29T03:44:47;98208.94;;;9.93;80.53
75425;BME280;64007;50.632;13.700;2023-05-29T03:47:13;98213.69;;;10.01;77.74
75425;BME280;64007;50.632;13.700;2023-05-29T03:49:39;98214.31;;;10.04;80.84
75425;BME280;64007;50.632;13.700;2023-05-29T03:52:05;98220.22;;;10.08;79.26
75425;BME280;64007;50.632;13.700;2023-05-29T03:54:32;98219.16;;;10.11;84.13
75425;BME280;64007;50.632;13.700;2023-05-29T03:56:58;98227.13;;;10.11;83.08
75425;BME280;64007;50.632;13.700;2023-05-29T03:59:23;98213.38;;;10.17;82.11
75425;BME280;64007;50.632;13.700;2023-05-29T04:01:49;98225.69;;;10.18;78.32
75425;BME280;64007;50.632;13.700;2023-05-29T04:04:15;98224.00;;;10.17;81.44
75425;BME280;64007;50.632;13.700;2023-05-29T04:06:41;98224.00;;;10.17;80.74
75425;BME280;64007;50.632;13.700;2023-05-29T04:09:07;98225.50;;;10.21;81.50
75425;BME280;64007;50.632;13.700;2023-05-29T04:11:34;98227.06;;;10.23;82.28
75425;BME280;64007;50.632;13.700;2023-05-29T04:14:01;98231.91;;;10.29;83.52
75425;BME280;64007;50.632;13.700;2023-05-29T04:16:27;98230.94;;;10.30;83.88
75425;BME280;64007;50.632;13.700;2023-05-29T04:18:56;98243.63;;;10.38;83.99
75425;BME280;64007;50.632;13.700;2023-05-29T04:21:22;98248.75;;;10.41;85.23
75425;BME280;64007;50.632;13.700;2023-05-29T04:23:48;98238.84;;;10.43;86.70
75425;BME280;64007;50.632;13.700;2023-05-29T04:26:13;98239.34;;;10.48;83.56
75425;BME280;64007;50.632;13.700;2023-05-29T04:28:39;98240.69;;;10.54;79.82
75425;BME280;64007;50.632;13.700;2023-05-29T04:31:04;98240.31;;;10.58;78.74
75425;BME280;64007;50.632;13.700;2023-05-29T04:33:33;98244.91;;;10.67;78.89
75425;BME280;64007;50.632;13.700;2023-05-29T04:36:02;98234.28;;;10.67;78.55
75425;BME280;64007;50.632;13.700;2023-05-29T04:38:29;98241.19;;;10.92;75.07
75425;BME280;64007;50.632;13.700;2023-05-29T04:40:56;98250.16;;;11.03;74.09
75425;BME280;64007;50.632;13.700;2023-05-29T04:43:24;98250.75;;;11.28;73.68
75425;BME280;64007;50.632;13.700;2023-05-29T04:45:52;98257.28;;;11.13;76.14
75425;BME280;64007;50.632;13.700;2023-05-29T04:48:19;98257.03;;;11.16;77.16
75425;BME280;64007;50.632;13.700;2023-05-29T04:50:44;98260.66;;;11.15;78.99
75425;BME280;64007;50.632;13.700;2023-05-29T04:53:11;98259.69;;;11.27;78.83
75425;BME280;64007;50.632;13.700;2023-05-29T04:55:36;98264.19;;;11.27;79.03
75425;BME280;64007;50.632;13.700;2023-05-29T04:58:02;98260.75;;;11.47;76.55
75425;BME280;64007;50.632;13.700;2023-05-29T05:00:28;98250.34;;;11.44;77.02
75425;BME280;64007;50.632;13.700;2023-05-29T05:02:54;98255.78;;;11.54;74.19
75425;BME280;64007;50.632;13.700;2023-05-29T05:05:20;98255.28;;;11.71;77.57
75425;BME280;64007;50.632;13.700;2023-05-29T05:07:46;98253.44;;;11.72;75.89
75425;BME280;64007;50.632;13.700;2023-05-29T05:10:12;98250.34;;;11.99;74.47
75425;BME280;64007;50.632;13.700;2023-05-29T05:12:38;98265.38;;;12.00;73.84
75425;BME280;64007;50.632;13.700;2023-05-29T05:15:04;98267.81;;;12.03;72.95
75425;BME280;64007;50.632;13.700;2023-05-29T05:17:30;98278.47;;;12.03;71.23
75425;BME280;64007;50.632;13.700;2023-05-29T05:19:56;98279.84;;;12.18;71.58
75425;BME280;64007;50.632;13.700;2023-05-29T05:22:22;98278.28;;;12.15;69.75
75425;BME280;64007;50.632;13.700;2023-05-29T05:24:47;98280.56;;;12.20;70.20
75425;BME280;64007;50.632;13.700;2023-05-29T05:27:13;98275.44;;;12.28;69.61
75425;BME280;64007;50.632;13.700;2023-05-29T05:29:39;98270.50;;;12.23;70.63
75425;BME280;64007;50.632;13.700;2023-05-29T05:32:05;98263.78;;;12.29;69.69
75425;BME280;64007;50.632;13.700;2023-05-29T05:34:31;98273.88;;;12.26;66.51
75425;BME280;64007;50.632;13.700;2023-05-29T05:36:57;98275.38;;;12.39;67.10
75425;BME280;64007;50.632;13.700;2023-05-29T05:39:23;98270.31;;;12.57;64.59
75425;BME280;64007;50.632;13.700;2023-05-29T05:41:49;98275.28;;;12.62;62.20
75425;BME280;64007;50.632;13.700;2023-05-29T05:44:14;98274.22;;;12.74;63.45
75425;BME280;64007;50.632;13.700;2023-05-29T05:46:40;98287.28;;;12.77;65.53
75425;BME280;64007;50.632;13.700;2023-05-29T05:49:06;98287.41;;;12.96;65.27
75425;BME280;64007;50.632;13.700;2023-05-29T05:51:31;98289.81;;;12.99;64.86
75425;BME280;64007;50.632;13.700;2023-05-29T05:53:57;98294.59;;;12.96;65.17
75425;BME280;64007;50.632;13.700;2023-05-29T05:56:23;98296.00;;;13.00;65.85
75425;BME280;64007;50.632;13.700;2023-05-29T05:58:48;98293.91;;;13.03;65.42
75425;BME280;64007;50.632;13.700;2023-05-29T06:01:15;98292.22;;;13.23;66.83
75425;BME280;64007;50.632;13.700;2023-05-29T06:03:41;98293.16;;;13.43;63.54
75425;BME280;64007;50.632;13.700;2023-05-29T06:06:07;98300.84;;;13.76;63.56
75425;BME280;64007;50.632;13.700;2023-05-29T06:08:34;98301.28;;;13.82;63.46
75425;BME280;64007;50.632;13.700;2023-05-29T06:11:00;98302.25;;;13.80;62.92
75425;BME280;64007;50.632;13.700;2023-05-29T06:13:25;98306.50;;;13.93;63.95
75425;BME280;64007;50.632;13.700;2023-05-29T06:15:51;98305.69;;;14.02;64.47
75425;BME280;64007;50.632;13.700;2023-05-29T06:18:17;98300.34;;;14.21;63.86
75425;BME280;64007;50.632;13.700;2023-05-29T06:20:43;98306.81;;;14.28;63.23
75425;BME280;64007;50.632;13.700;2023-05-29T06:23:08;98303.72;;;14.33;61.88
75425;BME280;64007;50.632;13.700;2023-05-29T06:25:34;98301.47;;;14.38;61.96
75425;BME280;64007;50.632;13.700;2023-05-29T06:28:00;98306.03;;;14.47;61.15
75425;BME280;64007;50.632;13.700;2023-05-29T06:30:27;98310.25;;;14.59;62.02
75425;BME280;64007;50.632;13.700;2023-05-29T06:32:52;98308.66;;;14.95;60.39
75425;BME280;64007;50.632;13.700;2023-05-29T06:35:18;98302.59;;;14.93;59.83
75425;BME280;64007;50.632;13.700;2023-05-29T06:37:45;98301.03;;;15.00;60.01
75425;BME280;64007;50.632;13.700;2023-05-29T06:40:12;98306.75;;;15.25;60.32
75425;BME280;64007;50.632;13.700;2023-05-29T06:42:38;98303.59;;;15.39;60.68
75425;BME280;64007;50.632;13.700;2023-05-29T06:45:04;98310.31;;;15.62;58.81
75425;BME280;64007;50.632;13.700;2023-05-29T06:47:29;98300.06;;;15.76;57.57
75425;BME280;64007;50.632;13.700;2023-05-29T06:49:55;98305.41;;;15.76;57.92
75425;BME280;64007;50.632;13.700;2023-05-29T06:52:21;98311.34;;;15.97;58.96
75425;BME280;64007;50.632;13.700;2023-05-29T06:54:47;98310.63;;;16.22;58.55
75425;BME280;64007;50.632;13.700;2023-05-29T06:57:12;98308.09;;;16.39;57.85
75425;BME280;64007;50.632;13.700;2023-05-29T06:59:38;98314.69;;;16.62;55.75
75425;BME280;64007;50.632;13.700;2023-05-29T07:02:04;98320.91;;;16.63;56.32
75425;BME280;64007;50.632;13.700;2023-05-29T07:04:31;98326.28;;;16.80;56.79
75425;BME280;64007;50.632;13.700;2023-05-29T07:06:56;98313.72;;;17.07;53.75
75425;BME280;64007;50.632;13.700;2023-05-29T07:09:22;98315.53;;;17.24;51.14
75425;BME280;64007;50.632;13.700;2023-05-29T07:11:48;98321.53;;;17.44;51.81
75425;BME280;64007;50.632;13.700;2023-05-29T07:14:13;98323.31;;;17.61;52.51
75425;BME280;64007;50.632;13.700;2023-05-29T07:16:39;98319.19;;;17.75;50.32
75425;BME280;64007;50.632;13.700;2023-05-29T07:19:05;98321.22;;;17.81;50.27
75425;BME280;64007;50.632;13.700;2023-05-29T07:21:31;98317.22;;;17.93;50.51
75425;BME280;64007;50.632;13.700;2023-05-29T07:23:59;98319.97;;;18.01;50.00
75425;BME280;64007;50.632;13.700;2023-05-29T07:26:24;98322.69;;;18.09;52.98
75425;BME280;64007;50.632;13.700;2023-05-29T07:28:50;98321.38;;;18.30;50.62
75425;BME280;64007;50.632;13.700;2023-05-29T07:31:16;98324.41;;;18.27;46.00
75425;BME280;64007;50.632;13.700;2023-05-29T07:33:42;98326.75;;;18.38;45.17
75425;BME280;64007;50.632;13.700;2023-05-29T07:36:08;98324.13;;;18.46;43.53
75425;BME280;64007;50.632;13.700;2023-05-29T07:38:33;98331.72;;;18.67;42.28
75425;BME280;64007;50.632;13.700;2023-05-29T07:40:59;98324.16;;;18.70;40.61
75425;BME280;64007;50.632;13.700;2023-05-29T07:43:25;98333.75;;;18.81;40.29
75425;BME280;64007;50.632;13.700;2023-05-29T07:45:50;98331.75;;;18.83;41.50
75425;BME280;64007;50.632;13.700;2023-05-29T07:48:17;98322.44;;;19.18;38.29
75425;BME280;64007;50.632;13.700;2023-05-29T07:50:42;98329.88;;;19.08;39.54
75425;BME280;64007;50.632;13.700;2023-05-29T07:53:09;98333.22;;;19.10;37.84
75425;BME280;64007;50.632;13.700;2023-05-29T07:55:34;98339.78;;;19.16;40.18
75425;BME280;64007;50.632;13.700;2023-05-29T07:58:01;98335.91;;;19.34;40.88
75425;BME280;64007;50.632;13.700;2023-05-29T08:00:27;98342.28;;;19.41;36.91
75425;BME280;64007;50.632;13.700;2023-05-29T08:02:54;98339.94;;;19.38;37.04
75425;BME280;64007;50.632;13.700;2023-05-29T08:05:19;98339.75;;;19.48;36.80
75425;BME280;64007;50.632;13.700;2023-05-29T08:07:46;98348.03;;;19.55;39.01
75425;BME280;64007;50.632;13.700;2023-05-29T08:10:13;98341.94;;;19.61;38.66
75425;BME280;64007;50.632;13.700;2023-05-29T08:12:39;98341.22;;;19.75;36.97
75425;BME280;64007;50.632;13.700;2023-05-29T08:15:05;98341.19;;;19.83;36.92
75425;BME280;64007;50.632;13.700;2023-05-29T08:17:31;98340.56;;;19.73;36.72
75425;BME280;64007;50.632;13.700;2023-05-29T08:19:56;98338.53;;;19.75;36.48
75425;BME280;64007;50.632;13.700;2023-05-29T08:22:28;98339.88;;;19.79;35.60
75425;BME280;64007;50.632;13.700;2023-05-29T08:24:54;98341.38;;;19.82;37.05
75425;BME280;64007;50.632;13.700;2023-05-29T08:27:19;98345.25;;;19.79;35.77
75425;BME280;64007;50.632;13.700;2023-05-29T08:29:45;98340.00;;;19.86;35.89
75425;BME280;64007;50.632;13.700;2023-05-29T08:32:11;98339.16;;;19.85;37.14
75425;BME280;64007;50.632;13.700;2023-05-29T08:34:36;98340.13;;;19.92;37.78
75425;BME280;64007;50.632;13.700;2023-05-29T08:37:02;98334.69;;;20.00;38.09
75425;BME280;64007;50.632;13.700;2023-05-29T08:39:28;98341.06;;;20.16;37.26
75425;BME280;64007;50.632;13.700;2023-05-29T08:44:32;98336.88;;;20.44;35.73
75425;BME280;64007;50.632;13.700;2023-05-29T08:47:02;98333.75;;;20.55;37.67
75425;BME280;64007;50.632;13.700;2023-05-29T08:49:52;98336.94;;;20.59;36.14
75425;BME280;64007;50.632;13.700;2023-05-29T08:52:22;98339.22;;;20.70;35.06
75425;BME280;64007;50.632;13.700;2023-05-29T08:54:48;98340.66;;;20.81;36.13
75425;BME280;64007;50.632;13.700;2023-05-29T08:57:14;98332.88;;;20.86;34.37
75425;BME280;64007;50.632;13.700;2023-05-29T08:59:42;98334.53;;;20.87;33.92
75425;BME280;64007;50.632;13.700;2023-05-29T09:02:09;98339.41;;;20.91;35.45
75425;BME280;64007;50.632;13.700;2023-05-29T09:04:37;98339.22;;;20.93;33.94
75425;BME280;64007;50.632;13.700;2023-05-29T09:07:03;98330.56;;;20.98;34.39
75425;BME280;64007;50.632;13.700;2023-05-29T09:09:29;98342.25;;;21.13;34.28
75425;BME280;64007;50.632;13.700;2023-05-29T09:11:57;98346.25;;;21.25;34.49
75425;BME280;64007;50.632;13.700;2023-05-29T09:14:41;98342.69;;;21.24;34.84
75425;BME280;64007;50.632;13.700;2023-05-29T09:17:09;98349.34;;;21.37;34.14
75425;BME280;64007;50.632;13.700;2023-05-29T09:19:35;98342.81;;;21.46;34.63
75425;BME280;64007;50.632;13.700;2023-05-29T09:24:29;98338.81;;;21.71;34.02
75425;BME280;64007;50.632;13.700;2023-05-29T09:26:58;98327.34;;;21.69;32.93
75425;BME280;64007;50.632;13.700;2023-05-29T09:29:24;98340.88;;;21.69;32.34
75425;BME280;64007;50.632;13.700;2023-05-29T09:31:50;98342.19;;;21.73;35.03
75425;BME280;64007;50.632;13.700;2023-05-29T09:34:16;98332.28;;;21.80;35.23
75425;BME280;64007;50.632;13.700;2023-05-29T09:36:41;98336.56;;;21.89;34.48
75425;BME280;64007;50.632;13.700;2023-05-29T09:39:07;98340.16;;;22.05;33.49
75425;BME280;64007;50.632;13.700;2023-05-29T09:41:42;98346.00;;;22.23;34.22
75425;BME280;64007;50.632;13.700;2023-05-29T09:44:07;98348.84;;;22.36;33.71
75425;BME280;64007;50.632;13.700;2023-05-29T09:46:36;98348.38;;;22.33;34.30
75425;BME280;64007;50.632;13.700;2023-05-29T09:49:02;98350.13;;;22.40;35.94
75425;BME280;64007;50.632;13.700;2023-05-29T09:51:31;98341.53;;;22.51;33.91
75425;BME280;64007;50.632;13.700;2023-05-29T09:53:56;98342.06;;;22.62;34.67
75425;BME280;64007;50.632;13.700;2023-05-29T09:56:26;98348.38;;;22.69;35.27
75425;BME280;64007;50.632;13.700;2023-05-29T09:58:56;98344.69;;;22.76;34.87
75425;BME280;64007;50.632;13.700;2023-05-29T10:01:23;98353.03;;;22.75;31.94
75425;BME280;64007;50.632;13.700;2023-05-29T10:03:49;98349.41;;;22.83;34.09
75425;BME280;64007;50.632;13.700;2023-05-29T10:06:18;98349.84;;;22.86;33.35
75425;BME280;64007;50.632;13.700;2023-05-29T10:08:47;98354.88;;;22.89;35.05
75425;BME280;64007;50.632;13.700;2023-05-29T10:11:21;98351.00;;;22.98;33.81
75425;BME280;64007;50.632;13.700;2023-05-29T10:13:51;98353.56;;;23.06;33.39
75425;BME280;64007;50.632;13.700;2023-05-29T10:16:20;98354.59;;;23.05;32.99
75425;BME280;64007;50.632;13.700;2023-05-29T10:18:56;98356.41;;;23.20;32.38
75425;BME280;64007;50.632;13.700;2023-05-29T10:21:27;98350.59;;;23.23;34.73
75425;BME280;64007;50.632;13.700;2023-05-29T10:23:54;98341.63;;;23.22;30.81
75425;BME280;64007;50.632;13.700;2023-05-29T10:26:24;98347.22;;;23.21;32.07
75425;BME280;64007;50.632;13.700;2023-05-29T10:32:07;98355.50;;;23.12;33.11
75425;BME280;64007;50.632;13.700;2023-05-29T10:37:50;98345.75;;;23.46;33.26
75425;BME280;64007;50.632;13.700;2023-05-29T10:40:23;98336.38;;;23.77;32.04
75425;BME280;64007;50.632;13.700;2023-05-29T10:42:50;98340.53;;;24.07;32.50
75425;BME280;64007;50.632;13.700;2023-05-29T10:47:55;98338.25;;;24.17;30.52
75425;BME280;64007;50.632;13.700;2023-05-29T10:50:37;98335.38;;;24.25;31.02
75425;BME280;64007;50.632;13.700;2023-05-29T10:53:06;98346.09;;;24.40;30.77
75425;BME280;64007;50.632;13.700;2023-05-29T10:55:39;98341.75;;;24.46;30.66
75425;BME280;64007;50.632;13.700;2023-05-29T10:58:14;98342.38;;;24.48;32.13
75425;BME280;64007;50.632;13.700;2023-05-29T11:00:40;98324.66;;;24.78;32.63
75425;BME280;64007;50.632;13.700;2023-05-29T11:03:10;98332.69;;;25.19;31.44
75425;BME280;64007;50.632;13.700;2023-05-29T11:06:16;98331.44;;;25.09;31.49
75425;BME280;64007;50.632;13.700;2023-05-29T11:08:46;98327.25;;;24.99;29.84
75425;BME280;64007;50.632;13.700;2023-05-29T11:11:13;98324.31;;;25.21;31.13
75425;BME280;64007;50.632;13.700;2023-05-29T11:13:39;98323.03;;;25.43;31.69
75425;BME280;64007;50.632;13.700;2023-05-29T11:18:52;98320.72;;;25.80;31.86
75425;BME280;64007;50.632;13.700;2023-05-29T11:23:51;98325.31;;;26.44;31.67
75425;BME280;64007;50.632;13.700;2023-05-29T11:26:19;98317.81;;;26.71;29.85
75425;BME280;64007;50.632;13.700;2023-05-29T11:28:46;98316.31;;;26.75;31.21
75425;BME280;64007;50.632;13.700;2023-05-29T11:31:12;98325.25;;;27.20;29.98
75425;BME280;64007;50.632;13.700;2023-05-29T11:33:49;98316.81;;;27.22;29.21
75425;BME280;64007;50.632;13.700;2023-05-29T11:36:18;98314.78;;;27.67;28.51
75425;BME280;64007;50.632;13.700;2023-05-29T11:38:45;98310.53;;;28.07;28.69
75425;BME280;64007;50.632;13.700;2023-05-29T11:41:11;98313.63;;;28.29;27.45
75425;BME280;64007;50.632;13.700;2023-05-29T11:43:37;98305.94;;;28.38;27.84
75425;BME280;64007;50.632;13.700;2023-05-29T11:46:16;98313.25;;;28.26;26.64
75425;BME280;64007;50.632;13.700;2023-05-29T11:48:46;98318.03;;;28.49;27.17
75425;BME280;64007;50.632;13.700;2023-05-29T11:51:12;98313.59;;;28.78;26.90
75425;BME280;64007;50.632;13.700;2023-05-29T11:53:43;98304.78;;;29.17;25.36
75425;BME280;64007;50.632;13.700;2023-05-29T11:56:09;98308.63;;;30.10;26.15
75425;BME280;64007;50.632;13.700;2023-05-29T11:58:37;98309.09;;;31.04;24.28
75425;BME280;64007;50.632;13.700;2023-05-29T12:01:04;98310.47;;;31.35;22.56
75425;BME280;64007;50.632;13.700;2023-05-29T12:03:40;98297.25;;;30.86;22.25
75425;BME280;64007;50.632;13.700;2023-05-29T12:06:06;98297.81;;;29.68;25.57
75425;BME280;64007;50.632;13.700;2023-05-29T12:08:33;98303.19;;;30.67;24.13
75425;BME280;64007;50.632;13.700;2023-05-29T12:10:59;98295.97;;;31.73;22.50
75425;BME280;64007;50.632;13.700;2023-05-29T12:13:25;98299.56;;;32.83;22.80
75425;BME280;64007;50.632;13.700;2023-05-29T12:15:57;98300.13;;;33.17;19.71
75425;BME280;64007;50.632;13.700;2023-05-29T12:18:25;98285.38;;;33.01;20.78
75425;BME280;64007;50.632;13.700;2023-05-29T12:21:02;98291.75;;;33.76;19.06
75425;BME280;64007;50.632;13.700;2023-05-29T12:23:29;98285.53;;;34.53;20.01
75425;BME280;64007;50.632;13.700;2023-05-29T12:25:56;98283.34;;;34.80;19.12
75425;BME280;64007;50.632;13.700;2023-05-29T12:28:22;98285.63;;;35.14;18.81
75425;BME280;64007;50.632;13.700;2023-05-29T12:30:48;98292.72;;;34.59;19.03
75425;BME280;64007;50.632;13.700;2023-05-29T12:35:53;98289.78;;;35.57;19.33
75425;BME280;64007;50.632;13.700;2023-05-29T12:38:19;98280.47;;;36.23;18.17
75425;BME280;64007;50.632;13.700;2023-05-29T12:40:48;98282.03;;;35.69;17.88
75425;BME280;64007;50.632;13.700;2023-05-29T12:43:14;98275.16;;;35.41;19.20
75425;BME280;64007;50.632;13.700;2023-05-29T12:45:41;98274.03;;;35.42;18.96
75425;BME280;64007;50.632;13.700;2023-05-29T12:48:08;98272.66;;;35.30;18.85
75425;BME280;64007;50.632;13.700;2023-05-29T12:50:39;98268.34;;;36.14;19.14
75425;BME280;64007;50.632;13.700;2023-05-29T12:55:32;98265.56;;;36.14;17.98
75425;BME280;64007;50.632;13.700;2023-05-29T12:58:05;98264.75;;;36.13;17.87
75425;BME280;64007;50.632;13.700;2023-05-29T13:00:33;98266.22;;;36.55;16.67
75425;BME280;64007;50.632;13.700;2023-05-29T13:02:59;98266.44;;;36.63;17.49
75425;BME280;64007;50.632;13.700;2023-05-29T13:05:24;98259.63;;;36.46;16.73
75425;BME280;64007;50.632;13.700;2023-05-29T13:07:51;98256.75;;;37.05;16.64
75425;BME280;64007;50.632;13.700;2023-05-29T13:10:18;98254.66;;;37.26;17.81
75425;BME280;64007;50.632;13.700;2023-05-29T13:12:44;98253.25;;;37.28;15.77
75425;BME280;64007;50.632;13.700;2023-05-29T13:15:12;98253.63;;;36.78;15.96
75425;BME280;64007;50.632;13.700;2023-05-29T13:17:39;98251.88;;;36.92;16.25
75425;BME280;64007;50.632;13.700;2023-05-29T13:20:10;98259.19;;;37.75;16.24